Terminal Aerodrome Forecast
Issued by NWS

Home | Current Version | Previous Version | Text Only | Print | Product List | Glossary On
Versions: 1 2 3 4 5 6 7 8 9 10 11 12 13 14 15 16 17 18 19 20 21 22 23 24 25 26
000
FTAK31 PAFA 240703 AAB
TAFASC
TAF AMD
PASC 240703Z 2407/2506 12004KT 1/4SM FZFG VV002
     FM241800 09008KT 3SM BR BKN004
     FM242000 08010KT 5SM BR BKN006
     FM242200 08010KT P6SM SCT008
     FM250500 08010KT 5SM BR BKN004=

USA.gov is the U.S. government's official web portal to all federal, state and local government web resources and services.